sensor_id;sensor_type;location;lat;lon;timestamp;pressure;altitude;pressure_sealevel;temperature;humidity
75740;BME280;64357;51.344;6.550;2024-01-27T00:00:43;102984.06;;;4.04;100.00
75740;BME280;64357;51.344;6.550;2024-01-27T00:03:11;102972.53;;;3.94;100.00
75740;BME280;64357;51.344;6.550;2024-01-27T00:05:39;102987.28;;;4.03;100.00
75740;BME280;64357;51.344;6.550;2024-01-27T00:08:07;102974.66;;;4.03;100.00
75740;BME280;64357;51.344;6.550;2024-01-27T00:10:33;102977.13;;;3.97;100.00
75740;BME280;64357;51.344;6.550;2024-01-27T00:12:58;102978.31;;;3.99;100.00
75740;BME280;64357;51.344;6.550;2024-01-27T00:15:24;102990.00;;;3.98;100.00
75740;BME280;64357;51.344;6.550;2024-01-27T00:17:51;102967.81;;;3.86;100.00
75740;BME280;64357;51.344;6.550;2024-01-27T00:20:19;102977.00;;;3.86;100.00
75740;BME280;64357;51.344;6.550;2024-01-27T00:22:44;102976.53;;;3.83;100.00
75740;BME280;64357;51.344;6.550;2024-01-27T00:25:10;102996.38;;;3.91;100.00
75740;BME280;64357;51.344;6.550;2024-01-27T00:27:35;102989.66;;;3.86;100.00
75740;BME280;64357;51.344;6.550;2024-01-27T00:30:04;102999.78;;;3.86;100.00
75740;BME280;64357;51.344;6.550;2024-01-27T00:32:32;103001.63;;;3.87;100.00
75740;BME280;64357;51.344;6.550;2024-01-27T00:35:02;102994.66;;;3.80;100.00
75740;BME280;64357;51.344;6.550;2024-01-27T00:37:30;103001.63;;;3.66;100.00
75740;BME280;64357;51.344;6.550;2024-01-27T00:39:55;103005.28;;;3.83;100.00
75740;BME280;64357;51.344;6.550;2024-01-27T00:42:21;102997.13;;;3.74;100.00
75740;BME280;64357;51.344;6.550;2024-01-27T00:44:50;103000.41;;;3.79;100.00
75740;BME280;64357;51.344;6.550;2024-01-27T00:47:15;102994.47;;;3.63;100.00
75740;BME280;64357;51.344;6.550;2024-01-27T00:49:43;103003.06;;;3.69;100.00
75740;BME280;64357;51.344;6.550;2024-01-27T00:52:08;103007.75;;;3.78;100.00
75740;BME280;64357;51.344;6.550;2024-01-27T00:54:34;103006.59;;;3.76;100.00
75740;BME280;64357;51.344;6.550;2024-01-27T00:56:59;102989.63;;;3.59;100.00
75740;BME280;64357;51.344;6.550;2024-01-27T00:59:30;103000.28;;;3.68;100.00
75740;BME280;64357;51.344;6.550;2024-01-27T01:01:55;103017.50;;;3.65;100.00
75740;BME280;64357;51.344;6.550;2024-01-27T01:04:24;103002.25;;;3.59;100.00
75740;BME280;64357;51.344;6.550;2024-01-27T01:06:56;103007.06;;;3.58;100.00
75740;BME280;64357;51.344;6.550;2024-01-27T01:09:23;103003.97;;;3.49;100.00
75740;BME280;64357;51.344;6.550;2024-01-27T01:11:49;102978.50;;;3.32;100.00
75740;BME280;64357;51.344;6.550;2024-01-27T01:14:19;102990.28;;;3.37;100.00
75740;BME280;64357;51.344;6.550;2024-01-27T01:16:47;103009.88;;;3.44;100.00
75740;BME280;64357;51.344;6.550;2024-01-27T01:19:15;103015.50;;;3.53;100.00
75740;BME280;64357;51.344;6.550;2024-01-27T01:21:40;102996.56;;;3.45;100.00
75740;BME280;64357;51.344;6.550;2024-01-27T01:24:06;102986.16;;;3.38;100.00
75740;BME280;64357;51.344;6.550;2024-01-27T01:26:31;102992.97;;;3.33;100.00
75740;BME280;64357;51.344;6.550;2024-01-27T01:28:57;103018.66;;;3.46;100.00
75740;BME280;64357;51.344;6.550;2024-01-27T01:31:22;103020.91;;;3.44;100.00
75740;BME280;64357;51.344;6.550;2024-01-27T01:33:47;103002.91;;;3.37;100.00
75740;BME280;64357;51.344;6.550;2024-01-27T01:36:14;102995.25;;;3.32;100.00
75740;BME280;64357;51.344;6.550;2024-01-27T01:38:41;103013.31;;;3.44;100.00
75740;BME280;64357;51.344;6.550;2024-01-27T01:41:07;103019.75;;;3.42;100.00
75740;BME280;64357;51.344;6.550;2024-01-27T01:43:33;102997.97;;;3.28;100.00
75740;BME280;64357;51.344;6.550;2024-01-27T01:45:58;103003.09;;;3.33;100.00
75740;BME280;64357;51.344;6.550;2024-01-27T01:48:23;102971.00;;;3.17;100.00
75740;BME280;64357;51.344;6.550;2024-01-27T01:50:51;102990.59;;;3.24;100.00
75740;BME280;64357;51.344;6.550;2024-01-27T01:53:18;103019.06;;;3.43;100.00
75740;BME280;64357;51.344;6.550;2024-01-27T01:55:43;103025.97;;;3.44;100.00
75740;BME280;64357;51.344;6.550;2024-01-27T01:58:08;103013.88;;;3.32;100.00
75740;BME280;64357;51.344;6.550;2024-01-27T02:00:34;103031.16;;;3.35;100.00
75740;BME280;64357;51.344;6.550;2024-01-27T02:02:59;103031.22;;;3.40;100.00
75740;BME280;64357;51.344;6.550;2024-01-27T02:05:25;103028.84;;;3.36;100.00
75740;BME280;64357;51.344;6.550;2024-01-27T02:07:52;103033.38;;;3.33;100.00
75740;BME280;64357;51.344;6.550;2024-01-27T02:10:21;103023.97;;;3.32;100.00
75740;BME280;64357;51.344;6.550;2024-01-27T02:12:54;103008.66;;;3.21;100.00
75740;BME280;64357;51.344;6.550;2024-01-27T02:15:22;102994.13;;;3.14;100.00
75740;BME280;64357;51.344;6.550;2024-01-27T02:17:49;103007.13;;;3.27;100.00
75740;BME280;64357;51.344;6.550;2024-01-27T02:20:15;103022.19;;;3.37;100.00
75740;BME280;64357;51.344;6.550;2024-01-27T02:22:42;103020.59;;;3.37;100.00
75740;BME280;64357;51.344;6.550;2024-01-27T02:25:08;103005.28;;;3.26;100.00
75740;BME280;64357;51.344;6.550;2024-01-27T02:27:38;103022.56;;;3.29;100.00
75740;BME280;64357;51.344;6.550;2024-01-27T02:30:06;103011.63;;;3.18;100.00
75740;BME280;64357;51.344;6.550;2024-01-27T02:32:31;103008.25;;;3.24;100.00
75740;BME280;64357;51.344;6.550;2024-01-27T02:34:57;103024.91;;;3.33;100.00
75740;BME280;64357;51.344;6.550;2024-01-27T02:37:22;103019.28;;;3.24;100.00
75740;BME280;64357;51.344;6.550;2024-01-27T02:39:53;103020.22;;;3.25;100.00
75740;BME280;64357;51.344;6.550;2024-01-27T02:42:18;103021.56;;;3.23;100.00
75740;BME280;64357;51.344;6.550;2024-01-27T02:44:46;103014.16;;;3.18;100.00
75740;BME280;64357;51.344;6.550;2024-01-27T02:47:14;103018.53;;;3.19;100.00
75740;BME280;64357;51.344;6.550;2024-01-27T02:49:39;103020.38;;;3.20;100.00
75740;BME280;64357;51.344;6.550;2024-01-27T02:52:07;103017.38;;;3.17;100.00
75740;BME280;64357;51.344;6.550;2024-01-27T02:54:44;103019.03;;;3.23;100.00
75740;BME280;64357;51.344;6.550;2024-01-27T02:57:09;103044.34;;;3.28;100.00
75740;BME280;64357;51.344;6.550;2024-01-27T02:59:37;103024.94;;;3.17;100.00
75740;BME280;64357;51.344;6.550;2024-01-27T03:02:04;103015.19;;;3.09;100.00
75740;BME280;64357;51.344;6.550;2024-01-27T03:04:30;103011.31;;;3.11;100.00
75740;BME280;64357;51.344;6.550;2024-01-27T03:06:55;103004.00;;;2.98;100.00
75740;BME280;64357;51.344;6.550;2024-01-27T03:09:24;103040.81;;;3.22;100.00
75740;BME280;64357;51.344;6.550;2024-01-27T03:11:49;103018.22;;;3.12;100.00
75740;BME280;64357;51.344;6.550;2024-01-27T03:14:17;103005.19;;;3.00;100.00
75740;BME280;64357;51.344;6.550;2024-01-27T03:16:43;103023.34;;;3.03;100.00
75740;BME280;64357;51.344;6.550;2024-01-27T03:19:09;103030.69;;;3.01;100.00
75740;BME280;64357;51.344;6.550;2024-01-27T03:21:34;103011.41;;;2.86;100.00
75740;BME280;64357;51.344;6.550;2024-01-27T03:23:59;103037.09;;;2.99;100.00
75740;BME280;64357;51.344;6.550;2024-01-27T03:26:25;103013.00;;;2.86;100.00
75740;BME280;64357;51.344;6.550;2024-01-27T03:28:55;103030.16;;;2.98;100.00
75740;BME280;64357;51.344;6.550;2024-01-27T03:31:20;103025.38;;;3.00;100.00
75740;BME280;64357;51.344;6.550;2024-01-27T03:33:45;103028.91;;;2.90;100.00
75740;BME280;64357;51.344;6.550;2024-01-27T03:36:14;103049.72;;;2.99;100.00
75740;BME280;64357;51.344;6.550;2024-01-27T03:38:42;103039.09;;;2.96;100.00
75740;BME280;64357;51.344;6.550;2024-01-27T03:41:08;103028.22;;;2.91;100.00
75740;BME280;64357;51.344;6.550;2024-01-27T03:43:33;103014.38;;;2.84;100.00
75740;BME280;64357;51.344;6.550;2024-01-27T03:45:59;103037.66;;;2.92;100.00
75740;BME280;64357;51.344;6.550;2024-01-27T03:48:32;103037.75;;;2.98;100.00
75740;BME280;64357;51.344;6.550;2024-01-27T03:50:57;103032.84;;;3.09;100.00
75740;BME280;64357;51.344;6.550;2024-01-27T03:53:25;103012.31;;;3.02;100.00
75740;BME280;64357;51.344;6.550;2024-01-27T03:55:53;103049.69;;;3.14;100.00
75740;BME280;64357;51.344;6.550;2024-01-27T03:58:19;103040.03;;;2.97;100.00
75740;BME280;64357;51.344;6.550;2024-01-27T04:00:44;103056.78;;;3.11;100.00
75740;BME280;64357;51.344;6.550;2024-01-27T04:03:09;103059.94;;;3.10;100.00
75740;BME280;64357;51.344;6.550;2024-01-27T04:05:37;103039.19;;;3.02;100.00
75740;BME280;64357;51.344;6.550;2024-01-27T04:08:04;103058.44;;;3.01;100.00
75740;BME280;64357;51.344;6.550;2024-01-27T04:10:30;103067.63;;;3.01;100.00
75740;BME280;64357;51.344;6.550;2024-01-27T04:12:56;103067.03;;;3.07;100.00
75740;BME280;64357;51.344;6.550;2024-01-27T04:15:21;103063.41;;;2.96;100.00
75740;BME280;64357;51.344;6.550;2024-01-27T04:17:46;103041.44;;;2.85;100.00
75740;BME280;64357;51.344;6.550;2024-01-27T04:20:12;103067.63;;;2.85;100.00
75740;BME280;64357;51.344;6.550;2024-01-27T04:22:37;103069.47;;;2.86;100.00
75740;BME280;64357;51.344;6.550;2024-01-27T04:25:02;103067.03;;;2.92;100.00
75740;BME280;64357;51.344;6.550;2024-01-27T04:27:36;103063.19;;;2.94;100.00
75740;BME280;64357;51.344;6.550;2024-01-27T04:30:01;103053.81;;;2.99;100.00
75740;BME280;64357;51.344;6.550;2024-01-27T04:32:29;103060.66;;;2.94;100.00
75740;BME280;64357;51.344;6.550;2024-01-27T04:34:54;103056.00;;;2.91;100.00
75740;BME280;64357;51.344;6.550;2024-01-27T04:37:20;103065.25;;;2.97;100.00
75740;BME280;64357;51.344;6.550;2024-01-27T04:39:47;103066.78;;;2.90;100.00
75740;BME280;64357;51.344;6.550;2024-01-27T04:42:12;103071.81;;;2.90;100.00
75740;BME280;64357;51.344;6.550;2024-01-27T04:44:40;103072.25;;;2.88;100.00
75740;BME280;64357;51.344;6.550;2024-01-27T04:47:06;103074.41;;;2.81;100.00
75740;BME280;64357;51.344;6.550;2024-01-27T04:49:32;103077.72;;;2.85;100.00
75740;BME280;64357;51.344;6.550;2024-01-27T04:51:57;103066.19;;;2.82;100.00
75740;BME280;64357;51.344;6.550;2024-01-27T04:54:22;103065.34;;;2.87;100.00
75740;BME280;64357;51.344;6.550;2024-01-27T04:56:47;103065.78;;;2.84;100.00
75740;BME280;64357;51.344;6.550;2024-01-27T04:59:13;103062.09;;;2.82;100.00
75740;BME280;64357;51.344;6.550;2024-01-27T05:01:38;103050.53;;;2.79;100.00
75740;BME280;64357;51.344;6.550;2024-01-27T05:04:03;103057.44;;;2.80;100.00
75740;BME280;64357;51.344;6.550;2024-01-27T05:06:29;103048.53;;;2.82;100.00
75740;BME280;64357;51.344;6.550;2024-01-27T05:08:55;103039.53;;;2.78;100.00
75740;BME280;64357;51.344;6.550;2024-01-27T05:11:31;103055.75;;;2.75;100.00
75740;BME280;64357;51.344;6.550;2024-01-27T05:14:02;103048.16;;;2.75;100.00
75740;BME280;64357;51.344;6.550;2024-01-27T05:16:30;103057.88;;;2.77;100.00
75740;BME280;64357;51.344;6.550;2024-01-27T05:18:55;103057.09;;;2.73;100.00
75740;BME280;64357;51.344;6.550;2024-01-27T05:21:21;103052.81;;;2.77;100.00
75740;BME280;64357;51.344;6.550;2024-01-27T05:23:48;103050.09;;;2.81;100.00
75740;BME280;64357;51.344;6.550;2024-01-27T05:26:14;103054.66;;;2.78;100.00
75740;BME280;64357;51.344;6.550;2024-01-27T05:28:41;103046.66;;;2.65;100.00
75740;BME280;64357;51.344;6.550;2024-01-27T05:31:09;103061.06;;;2.76;100.00
75740;BME280;64357;51.344;6.550;2024-01-27T05:33:35;103059.88;;;2.74;100.00
75740;BME280;64357;51.344;6.550;2024-01-27T05:36:01;103052.06;;;2.73;100.00
75740;BME280;64357;51.344;6.550;2024-01-27T05:38:27;103057.03;;;2.82;100.00
75740;BME280;64357;51.344;6.550;2024-01-27T05:40:56;103051.97;;;2.67;100.00
75740;BME280;64357;51.344;6.550;2024-01-27T05:43:21;103055.25;;;2.72;100.00
75740;BME280;64357;51.344;6.550;2024-01-27T05:45:47;103053.47;;;2.61;100.00
75740;BME280;64357;51.344;6.550;2024-01-27T05:48:14;103059.44;;;2.61;100.00
75740;BME280;64357;51.344;6.550;2024-01-27T05:50:42;103046.56;;;2.60;100.00
75740;BME280;64357;51.344;6.550;2024-01-27T05:53:10;103053.91;;;2.58;100.00
75740;BME280;64357;51.344;6.550;2024-01-27T05:55:38;103053.81;;;2.68;100.00
75740;BME280;64357;51.344;6.550;2024-01-27T05:58:03;103061.63;;;2.70;100.00
75740;BME280;64357;51.344;6.550;2024-01-27T06:00:29;103070.31;;;2.66;100.00
75740;BME280;64357;51.344;6.550;2024-01-27T06:02:58;103049.59;;;2.63;100.00
75740;BME280;64357;51.344;6.550;2024-01-27T06:05:24;103058.47;;;2.71;100.00
75740;BME280;64357;51.344;6.550;2024-01-27T06:07:49;103058.16;;;2.69;100.00
75740;BME280;64357;51.344;6.550;2024-01-27T06:10:17;103065.59;;;2.73;100.00
75740;BME280;64357;51.344;6.550;2024-01-27T06:12:43;103059.44;;;2.61;100.00
75740;BME280;64357;51.344;6.550;2024-01-27T06:15:09;103046.06;;;2.57;100.00
75740;BME280;64357;51.344;6.550;2024-01-27T06:17:35;103062.16;;;2.73;100.00
75740;BME280;64357;51.344;6.550;2024-01-27T06:20:00;103065.09;;;2.70;100.00
75740;BME280;64357;51.344;6.550;2024-01-27T06:22:25;103052.63;;;2.66;100.00
75740;BME280;64357;51.344;6.550;2024-01-27T06:24:51;103066.53;;;2.58;100.00
75740;BME280;64357;51.344;6.550;2024-01-27T06:27:16;103051.53;;;2.54;100.00
75740;BME280;64357;51.344;6.550;2024-01-27T06:29:41;103062.41;;;2.59;100.00
75740;BME280;64357;51.344;6.550;2024-01-27T06:32:07;103070.88;;;2.59;100.00
75740;BME280;64357;51.344;6.550;2024-01-27T06:34:32;103055.97;;;2.46;100.00
75740;BME280;64357;51.344;6.550;2024-01-27T06:37:01;103050.66;;;2.44;100.00
75740;BME280;64357;51.344;6.550;2024-01-27T06:39:26;103046.06;;;2.42;100.00
75740;BME280;64357;51.344;6.550;2024-01-27T06:41:52;103063.72;;;2.57;100.00
75740;BME280;64357;51.344;6.550;2024-01-27T06:44:19;103072.31;;;2.63;100.00
75740;BME280;64357;51.344;6.550;2024-01-27T06:46:44;103080.88;;;2.69;100.00
75740;BME280;64357;51.344;6.550;2024-01-27T06:49:11;103066.75;;;2.60;100.00
75740;BME280;64357;51.344;6.550;2024-01-27T06:51:38;103078.94;;;2.62;100.00
75740;BME280;64357;51.344;6.550;2024-01-27T06:54:03;103072.78;;;2.51;100.00
75740;BME280;64357;51.344;6.550;2024-01-27T06:56:28;103092.56;;;2.53;100.00
75740;BME280;64357;51.344;6.550;2024-01-27T06:58:54;103091.31;;;2.61;100.00
75740;BME280;64357;51.344;6.550;2024-01-27T07:01:19;103078.13;;;2.52;100.00
75740;BME280;64357;51.344;6.550;2024-01-27T07:03:46;103084.22;;;2.49;100.00
75740;BME280;64357;51.344;6.550;2024-01-27T07:06:12;103098.78;;;2.55;100.00
75740;BME280;64357;51.344;6.550;2024-01-27T07:08:39;103096.50;;;2.57;100.00
75740;BME280;64357;51.344;6.550;2024-01-27T07:11:06;103104.25;;;2.53;100.00
75740;BME280;64357;51.344;6.550;2024-01-27T07:13:31;103107.38;;;2.61;100.00
75740;BME280;64357;51.344;6.550;2024-01-27T07:15:56;103087.25;;;2.52;100.00
75740;BME280;64357;51.344;6.550;2024-01-27T07:18:23;103085.16;;;2.49;100.00
75740;BME280;64357;51.344;6.550;2024-01-27T07:20:49;103108.72;;;2.59;100.00
75740;BME280;64357;51.344;6.550;2024-01-27T07:23:14;103104.19;;;2.62;100.00
75740;BME280;64357;51.344;6.550;2024-01-27T07:25:40;103108.97;;;2.61;100.00
75740;BME280;64357;51.344;6.550;2024-01-27T07:28:07;103106.78;;;2.68;100.00
75740;BME280;64357;51.344;6.550;2024-01-27T07:30:35;103105.09;;;2.63;100.00
75740;BME280;64357;51.344;6.550;2024-01-27T07:33:03;103114.28;;;2.62;100.00
75740;BME280;64357;51.344;6.550;2024-01-27T07:35:30;103112.03;;;2.64;100.00
75740;BME280;64357;51.344;6.550;2024-01-27T07:37:57;103110.56;;;2.60;100.00
75740;BME280;64357;51.344;6.550;2024-01-27T07:40:22;103119.00;;;2.46;100.00
75740;BME280;64357;51.344;6.550;2024-01-27T07:42:48;103123.09;;;2.55;100.00
75740;BME280;64357;51.344;6.550;2024-01-27T07:45:13;103107.72;;;2.53;100.00
75740;BME280;64357;51.344;6.550;2024-01-27T07:47:39;103113.09;;;2.60;100.00
75740;BME280;64357;51.344;6.550;2024-01-27T07:50:04;103120.91;;;2.62;100.00
75740;BME280;64357;51.344;6.550;2024-01-27T07:52:30;103099.81;;;2.61;100.00
75740;BME280;64357;51.344;6.550;2024-01-27T07:54:55;103103.16;;;2.56;100.00
75740;BME280;64357;51.344;6.550;2024-01-27T07:57:21;103123.38;;;2.72;100.00
75740;BME280;64357;51.344;6.550;2024-01-27T07:59:49;103132.13;;;2.74;100.00
75740;BME280;64357;51.344;6.550;2024-01-27T08:02:14;103131.72;;;2.76;100.00
75740;BME280;64357;51.344;6.550;2024-01-27T08:04:39;103137.81;;;2.82;100.00
75740;BME280;64357;51.344;6.550;2024-01-27T08:07:05;103135.28;;;2.82;100.00
75740;BME280;64357;51.344;6.550;2024-01-27T08:09:37;103127.59;;;2.77;100.00
75740;BME280;64357;51.344;6.550;2024-01-27T08:12:04;103147.06;;;2.87;100.00
75740;BME280;64357;51.344;6.550;2024-01-27T08:14:32;103128.28;;;2.91;100.00
75740;BME280;64357;51.344;6.550;2024-01-27T08:16:59;103135.84;;;2.91;100.00
75740;BME280;64357;51.344;6.550;2024-01-27T08:19:24;103133.19;;;2.95;100.00
75740;BME280;64357;51.344;6.550;2024-01-27T08:21:50;103147.84;;;3.07;100.00
75740;BME280;64357;51.344;6.550;2024-01-27T08:24:15;103157.00;;;3.07;100.00
75740;BME280;64357;51.344;6.550;2024-01-27T08:26:41;103155.66;;;3.09;100.00
75740;BME280;64357;51.344;6.550;2024-01-27T08:29:08;103159.28;;;3.05;100.00
75740;BME280;64357;51.344;6.550;2024-01-27T08:31:33;103149.34;;;3.16;100.00
75740;BME280;64357;51.344;6.550;2024-01-27T08:34:08;103169.81;;;3.18;100.00
75740;BME280;64357;51.344;6.550;2024-01-27T08:36:37;103164.16;;;3.25;100.00
75740;BME280;64357;51.344;6.550;2024-01-27T08:39:07;103152.13;;;3.18;100.00
75740;BME280;64357;51.344;6.550;2024-01-27T08:41:37;103146.75;;;3.26;100.00
75740;BME280;64357;51.344;6.550;2024-01-27T08:44:03;103144.53;;;3.33;100.00
75740;BME280;64357;51.344;6.550;2024-01-27T08:46:31;103139.91;;;3.31;100.00
75740;BME280;64357;51.344;6.550;2024-01-27T08:48:56;103147.16;;;3.39;100.00
75740;BME280;64357;51.344;6.550;2024-01-27T08:51:26;103138.97;;;3.45;100.00
75740;BME280;64357;51.344;6.550;2024-01-27T08:53:54;103140.72;;;3.56;100.00
75740;BME280;64357;51.344;6.550;2024-01-27T08:56:19;103143.47;;;3.52;100.00
75740;BME280;64357;51.344;6.550;2024-01-27T08:58:46;103134.50;;;3.54;100.00
75740;BME280;64357;51.344;6.550;2024-01-27T09:01:16;103143.34;;;3.62;100.00
75740;BME280;64357;51.344;6.550;2024-01-27T09:03:41;103141.00;;;3.58;100.00
75740;BME280;64357;51.344;6.550;2024-01-27T09:06:07;103142.41;;;3.61;100.00
75740;BME280;64357;51.344;6.550;2024-01-27T09:08:38;103135.66;;;3.71;100.00
75740;BME280;64357;51.344;6.550;2024-01-27T09:11:04;103137.22;;;3.86;100.00
75740;BME280;64357;51.344;6.550;2024-01-27T09:13:31;103132.50;;;3.93;100.00
75740;BME280;64357;51.344;6.550;2024-01-27T09:16:00;103139.47;;;4.00;100.00
75740;BME280;64357;51.344;6.550;2024-01-27T09:18:26;103140.00;;;4.09;100.00
75740;BME280;64357;51.344;6.550;2024-01-27T09:20:52;103137.72;;;4.10;100.00
75740;BME280;64357;51.344;6.550;2024-01-27T09:23:20;103125.34;;;4.12;100.00
75740;BME280;64357;51.344;6.550;2024-01-27T09:25:46;103127.31;;;4.24;100.00
75740;BME280;64357;51.344;6.550;2024-01-27T09:28:11;103139.63;;;4.38;100.00
75740;BME280;64357;51.344;6.550;2024-01-27T09:30:37;103145.16;;;4.35;100.00
75740;BME280;64357;51.344;6.550;2024-01-27T09:33:03;103138.31;;;4.45;100.00
75740;BME280;64357;51.344;6.550;2024-01-27T09:35:28;103131.78;;;4.57;100.00
75740;BME280;64357;51.344;6.550;2024-01-27T09:37:58;103128.59;;;4.58;100.00
75740;BME280;64357;51.344;6.550;2024-01-27T09:40:24;103128.69;;;4.69;100.00
75740;BME280;64357;51.344;6.550;2024-01-27T09:42:52;103119.84;;;4.62;100.00
75740;BME280;64357;51.344;6.550;2024-01-27T09:45:19;103143.94;;;4.75;100.00
75740;BME280;64357;51.344;6.550;2024-01-27T09:47:45;103120.47;;;4.76;100.00
75740;BME280;64357;51.344;6.550;2024-01-27T09:50:11;103133.41;;;4.83;100.00
75740;BME280;64357;51.344;6.550;2024-01-27T09:52:37;103138.38;;;4.98;100.00
75740;BME280;64357;51.344;6.550;2024-01-27T09:55:05;103146.19;;;5.00;100.00
75740;BME280;64357;51.344;6.550;2024-01-27T09:57:31;103142.25;;;4.96;100.00
75740;BME280;64357;51.344;6.550;2024-01-27T09:59:57;103150.13;;;5.03;100.00
75740;BME280;64357;51.344;6.550;2024-01-27T10:02:24;103144.69;;;5.12;100.00
75740;BME280;64357;51.344;6.550;2024-01-27T10:04:50;103152.34;;;5.23;100.00
75740;BME280;64357;51.344;6.550;2024-01-27T10:07:16;103166.41;;;5.26;100.00
75740;BME280;64357;51.344;6.550;2024-01-27T10:09:42;103178.47;;;5.39;100.00
75740;BME280;64357;51.344;6.550;2024-01-27T10:12:09;103189.06;;;5.36;100.00
75740;BME280;64357;51.344;6.550;2024-01-27T10:14:42;103181.53;;;5.47;100.00
75740;BME280;64357;51.344;6.550;2024-01-27T10:17:11;103179.44;;;5.45;100.00
75740;BME280;64357;51.344;6.550;2024-01-27T10:19:38;103179.16;;;5.38;100.00
75740;BME280;64357;51.344;6.550;2024-01-27T10:22:04;103180.34;;;5.40;100.00
75740;BME280;64357;51.344;6.550;2024-01-27T10:24:31;103177.63;;;5.49;100.00
75740;BME280;64357;51.344;6.550;2024-01-27T10:27:01;103182.53;;;5.59;100.00
75740;BME280;64357;51.344;6.550;2024-01-27T10:29:26;103190.59;;;5.62;100.00
75740;BME280;64357;51.344;6.550;2024-01-27T10:31:52;103180.50;;;5.68;100.00
75740;BME280;64357;51.344;6.550;2024-01-27T10:34:20;103186.56;;;5.79;100.00
75740;BME280;64357;51.344;6.550;2024-01-27T10:36:46;103188.06;;;5.94;100.00
75740;BME280;64357;51.344;6.550;2024-01-27T10:39:21;103185.03;;;5.91;100.00
75740;BME280;64357;51.344;6.550;2024-01-27T10:41:48;103184.53;;;5.88;100.00
75740;BME280;64357;51.344;6.550;2024-01-27T10:44:15;103181.84;;;6.03;100.00
75740;BME280;64357;51.344;6.550;2024-01-27T10:46:48;103182.78;;;6.04;100.00
75740;BME280;64357;51.344;6.550;2024-01-27T10:49:16;103173.13;;;6.07;100.00
75740;BME280;64357;51.344;6.550;2024-01-27T10:51:55;103171.59;;;6.30;100.00
75740;BME280;64357;51.344;6.550;2024-01-27T10:54:26;103156.53;;;6.20;100.00
75740;BME280;64357;51.344;6.550;2024-01-27T10:56:56;103157.47;;;6.26;100.00
75740;BME280;64357;51.344;6.550;2024-01-27T10:59:22;103166.72;;;6.31;100.00
75740;BME280;64357;51.344;6.550;2024-01-27T11:01:52;103156.84;;;6.44;100.00
75740;BME280;64357;51.344;6.550;2024-01-27T11:04:19;103148.53;;;6.39;100.00
75740;BME280;64357;51.344;6.550;2024-01-27T11:06:50;103144.63;;;6.47;100.00
75740;BME280;64357;51.344;6.550;2024-01-27T11:09:15;103158.72;;;6.45;100.00
75740;BME280;64357;51.344;6.550;2024-01-27T11:11:43;103164.47;;;6.55;100.00
75740;BME280;64357;51.344;6.550;2024-01-27T11:14:10;103168.41;;;6.59;100.00
75740;BME280;64357;51.344;6.550;2024-01-27T11:16:36;103163.81;;;6.73;100.00
75740;BME280;64357;51.344;6.550;2024-01-27T11:19:09;103161.72;;;6.71;100.00
75740;BME280;64357;51.344;6.550;2024-01-27T11:21:39;103167.53;;;6.81;100.00
75740;BME280;64357;51.344;6.550;2024-01-27T11:24:18;103162.91;;;7.01;100.00
75740;BME280;64357;51.344;6.550;2024-01-27T11:27:02;103171.91;;;6.99;100.00
75740;BME280;64357;51.344;6.550;2024-01-27T11:29:47;103160.13;;;6.99;100.00
75740;BME280;64357;51.344;6.550;2024-01-27T11:32:12;103146.94;;;6.96;100.00
75740;BME280;64357;51.344;6.550;2024-01-27T11:34:45;103131.25;;;7.10;100.00
75740;BME280;64357;51.344;6.550;2024-01-27T11:37:22;103140.69;;;7.39;100.00
75740;BME280;64357;51.344;6.550;2024-01-27T11:39:51;103169.41;;;7.90;100.00
75740;BME280;64357;51.344;6.550;2024-01-27T11:42:19;103133.66;;;8.59;100.00
75740;BME280;64357;51.344;6.550;2024-01-27T11:44:52;103148.22;;;9.37;96.63
75740;BME280;64357;51.344;6.550;2024-01-27T11:47:19;103137.59;;;9.95;91.01
75740;BME280;64357;51.344;6.550;2024-01-27T11:49:54;103125.78;;;10.08;87.95
75740;BME280;64357;51.344;6.550;2024-01-27T11:52:20;103146.16;;;10.50;84.82
75740;BME280;64357;51.344;6.550;2024-01-27T11:54:53;103113.50;;;10.99;80.12
75740;BME280;64357;51.344;6.550;2024-01-27T11:57:19;103125.97;;;11.41;72.95
75740;BME280;64357;51.344;6.550;2024-01-27T11:59:47;103134.94;;;11.83;71.45
75740;BME280;64357;51.344;6.550;2024-01-27T12:02:12;103163.13;;;12.35;67.22
75740;BME280;64357;51.344;6.550;2024-01-27T12:04:38;103119.63;;;12.03;64.59
75740;BME280;64357;51.344;6.550;2024-01-27T12:07:04;103148.94;;;11.92;64.75
75740;BME280;64357;51.344;6.550;2024-01-27T12:09:30;103117.19;;;11.97;64.85
75740;BME280;64357;51.344;6.550;2024-01-27T12:11:56;103147.13;;;12.43;61.81
75740;BME280;64357;51.344;6.550;2024-01-27T12:14:21;103130.59;;;11.89;61.70
75740;BME280;64357;51.344;6.550;2024-01-27T12:16:52;103103.34;;;11.44;62.85
75740;BME280;64357;51.344;6.550;2024-01-27T12:19:20;103109.59;;;10.70;68.58
75740;BME280;64357;51.344;6.550;2024-01-27T12:21:59;103114.50;;;11.44;64.69
75740;BME280;64357;51.344;6.550;2024-01-27T12:24:25;103108.84;;;11.47;63.22
75740;BME280;64357;51.344;6.550;2024-01-27T12:26:50;103129.38;;;11.21;64.54
75740;BME280;64357;51.344;6.550;2024-01-27T12:29:16;103098.13;;;10.11;71.59
75740;BME280;64357;51.344;6.550;2024-01-27T12:32:04;103140.81;;;11.56;65.79
75740;BME280;64357;51.344;6.550;2024-01-27T12:34:30;103137.41;;;11.63;63.20
75740;BME280;64357;51.344;6.550;2024-01-27T12:36:59;103095.28;;;12.06;60.83
75740;BME280;64357;51.344;6.550;2024-01-27T12:39:28;103083.56;;;12.21;60.25
75740;BME280;64357;51.344;6.550;2024-01-27T12:42:13;103111.00;;;12.42;58.54
75740;BME280;64357;51.344;6.550;2024-01-27T12:44:44;103111.63;;;12.26;58.15
75740;BME280;64357;51.344;6.550;2024-01-27T12:47:17;103080.41;;;11.96;57.58
75740;BME280;64357;51.344;6.550;2024-01-27T12:49:45;103104.25;;;11.90;57.28